Time;durP1;ratioP1;P1;durP2;ratioP2;P2;SDS_P1;SDS_P2;PMS_P1;PMS_P2;Temp;Humidity;BMP_temperature;BMP_pressure;BME280_temperature;BME280_humidity;BME280_pressure;Samples;Min_cycle;Max_cycle;Signal;HPM_P1;HPM_P2
2023/08/08 00:02:13;;;;;;;5.57;3.35;;;15.60;90.30;;;;;;5058651;28;20028;-68
2023/08/08 00:04:38;;;;;;;3.92;2.78;;;15.60;90.40;;;;;;5058138;28;20503;-68
2023/08/08 00:07:04;;;;;;;5.68;2.80;;;15.70;90.40;;;;;;5057835;28;20476;-68
2023/08/08 00:09:30;;;;;;;4.97;2.90;;;15.60;90.40;;;;;;5059159;28;20047;-68
2023/08/08 00:11:57;;;;;;;5.68;3.08;;;15.60;90.50;;;;;;5057247;28;20518;-68
2023/08/08 00:14:23;;;;;;;5.30;3.10;;;15.60;90.50;;;;;;5059162;28;20021;-69
2023/08/08 00:16:49;;;;;;;6.18;2.63;;;15.60;90.50;;;;;;5058187;28;20056;-69
2023/08/08 00:19:15;;;;;;;4.35;3.20;;;15.70;90.60;;;;;;5057510;28;20122;-68
2023/08/08 00:21:40;;;;;;;6.47;3.42;;;15.60;90.60;;;;;;5064973;28;20032;-69
2023/08/08 00:24:06;;;;;;;6.75;3.72;;;15.60;90.70;;;;;;5057246;28;20101;-69
2023/08/08 00:26:32;;;;;;;6.35;3.90;;;15.60;90.80;;;;;;5056827;28;20063;-69
2023/08/08 00:28:57;;;;;;;6.35;3.22;;;15.60;90.90;;;;;;5055156;28;20438;-69
2023/08/08 00:31:23;;;;;;;6.40;3.03;;;15.60;90.90;;;;;;5049594;28;20037;-69
2023/08/08 00:33:48;;;;;;;5.93;3.38;;;15.60;90.90;;;;;;5056806;28;20032;-69
2023/08/08 00:36:14;;;;;;;7.95;3.50;;;15.70;91.00;;;;;;5054212;28;20032;-69
2023/08/08 00:38:39;;;;;;;6.07;3.35;;;15.60;91.00;;;;;;5059611;28;20052;-69
2023/08/08 00:41:05;;;;;;;4.40;3.10;;;15.60;90.90;;;;;;5049634;28;20033;-69
2023/08/08 00:43:30;;;;;;;4.65;3.10;;;15.70;90.90;;;;;;5054456;28;20021;-69
2023/08/08 00:45:57;;;;;;;4.65;2.88;;;15.70;90.90;;;;;;5068580;28;20016;-69
2023/08/08 00:48:23;;;;;;;4.93;3.30;;;15.70;90.90;;;;;;5066914;28;20538;-69
2023/08/08 00:50:50;;;;;;;6.97;3.30;;;15.70;90.90;;;;;;5071190;28;20115;-69
2023/08/08 00:53:18;;;;;;;4.97;3.30;;;15.70;90.90;;;;;;5071245;28;20041;-69
2023/08/08 00:55:43;;;;;;;4.97;3.17;;;15.70;91.00;;;;;;5072090;28;20036;-69
2023/08/08 00:58:10;;;;;;;4.60;3.40;;;15.70;90.90;;;;;;5070985;28;20475;-69
2023/08/08 01:00:35;;;;;;;5.28;3.15;;;15.70;90.90;;;;;;5054026;28;20021;-69
2023/08/08 01:03:01;;;;;;;7.00;3.03;;;15.80;91.00;;;;;;5061667;28;20048;-69
2023/08/08 01:05:35;;;;;;;5.60;3.28;;;15.80;90.90;;;;;;5072128;28;20099;-69
2023/08/08 01:08:07;;;;;;;6.10;3.55;;;15.80;90.90;;;;;;5053471;28;20036;-69
2023/08/08 01:10:39;;;;;;;4.05;3.20;;;15.80;90.90;;;;;;5070702;28;20436;-69
2023/08/08 01:13:10;;;;;;;7.47;3.40;;;15.80;91.00;;;;;;5072346;28;20028;-69
2023/08/08 01:15:36;;;;;;;6.57;3.60;;;15.80;91.00;;;;;;5069785;28;20024;-69
2023/08/08 01:18:06;;;;;;;4.57;3.42;;;15.70;91.10;;;;;;5054744;28;20114;-69
2023/08/08 01:20:33;;;;;;;5.60;3.30;;;15.70;91.30;;;;;;5069415;28;20513;-69
2023/08/08 01:23:13;;;;;;;5.93;3.72;;;15.70;91.50;;;;;;5072652;28;20021;-70
2023/08/08 01:25:40;;;;;;;7.15;3.47;;;15.70;91.60;;;;;;5053388;28;20028;-69
2023/08/08 01:28:06;;;;;;;5.47;3.13;;;15.70;91.70;;;;;;5069454;28;20592;-69
2023/08/08 01:30:32;;;;;;;6.15;3.55;;;15.70;91.70;;;;;;5055326;28;20112;-70
2023/08/08 01:32:58;;;;;;;6.05;3.40;;;15.70;91.80;;;;;;5063176;28;20115;-69
2023/08/08 01:35:28;;;;;;;4.25;2.95;;;15.70;91.90;;;;;;5064769;28;20036;-69
2023/08/08 01:38:23;;;;;;;6.63;3.00;;;15.70;92.00;;;;;;5061891;28;20106;-69
2023/08/08 01:40:49;;;;;;;6.35;3.28;;;15.70;92.00;;;;;;5067043;28;20044;-69
2023/08/08 01:43:16;;;;;;;7.47;3.40;;;15.70;92.10;;;;;;5072413;28;20028;-69
2023/08/08 01:45:42;;;;;;;7.05;3.40;;;15.60;92.20;;;;;;5071466;28;20055;-70
2023/08/08 01:48:09;;;;;;;5.55;2.80;;;15.60;92.30;;;;;;5061102;28;20023;-69
2023/08/08 01:50:35;;;;;;;5.75;2.92;;;15.60;92.30;;;;;;5065463;28;20039;-70
2023/08/08 01:53:01;;;;;;;3.88;2.60;;;15.70;92.20;;;;;;5071759;28;20024;-69
2023/08/08 01:55:27;;;;;;;5.82;2.88;;;15.70;92.20;;;;;;5051889;28;20027;-70
2023/08/08 01:57:52;;;;;;;5.45;2.80;;;15.70;92.20;;;;;;5066013;28;20061;-70
2023/08/08 02:00:18;;;;;;;5.10;2.80;;;15.70;92.20;;;;;;5056254;28;20375;-69
2023/08/08 02:02:44;;;;;;;7.45;2.90;;;15.70;92.20;;;;;;5056661;28;20523;-69
2023/08/08 02:05:09;;;;;;;8.70;2.70;;;15.70;92.20;;;;;;5068761;28;20089;-69
2023/08/08 02:07:35;;;;;;;6.47;3.00;;;15.70;92.20;;;;;;5067942;28;20033;-68
2023/08/08 02:10:01;;;;;;;6.57;3.17;;;15.70;92.20;;;;;;5063375;28;20076;-69
2023/08/08 02:12:28;;;;;;;5.13;3.38;;;15.60;92.20;;;;;;5051847;28;20024;-69
2023/08/08 02:14:54;;;;;;;6.10;3.00;;;15.70;92.20;;;;;;5071391;28;20221;-69
2023/08/08 02:17:20;;;;;;;4.80;2.70;;;15.60;92.20;;;;;;5058949;28;20164;-68
2023/08/08 02:19:46;;;;;;;4.40;2.70;;;15.60;92.30;;;;;;5070169;28;20423;-69
2023/08/08 02:22:11;;;;;;;5.43;2.65;;;15.60;92.30;;;;;;5071322;28;20146;-69
2023/08/08 02:24:37;;;;;;;4.53;2.70;;;15.60;92.30;;;;;;5053849;28;20043;-69
2023/08/08 02:27:03;;;;;;;6.28;3.30;;;15.60;92.30;;;;;;5059751;28;20035;-69
2023/08/08 02:29:28;;;;;;;6.85;3.25;;;15.50;92.40;;;;;;5051575;28;20120;-69
2023/08/08 02:31:54;;;;;;;5.40;2.80;;;15.50;92.50;;;;;;5064170;28;20032;-69
2023/08/08 02:34:19;;;;;;;5.88;3.13;;;15.50;92.50;;;;;;5064252;28;20610;-68
2023/08/08 02:36:45;;;;;;;7.50;3.10;;;15.50;92.60;;;;;;5060816;28;20515;-69
2023/08/08 02:39:10;;;;;;;4.65;3.00;;;15.50;92.60;;;;;;5058900;28;20641;-69
2023/08/08 02:41:36;;;;;;;7.00;3.05;;;15.40;92.60;;;;;;5060921;28;20027;-69
2023/08/08 02:44:01;;;;;;;5.50;2.60;;;15.40;92.70;;;;;;5061442;28;20399;-69
2023/08/08 02:46:27;;;;;;;5.78;2.90;;;15.40;92.80;;;;;;5069298;28;20100;-70
2023/08/08 02:48:53;;;;;;;4.13;2.55;;;15.40;92.80;;;;;;5053040;28;20025;-69
2023/08/08 02:51:18;;;;;;;4.07;2.72;;;15.40;92.70;;;;;;5050608;28;20075;-69
2023/08/08 02:53:44;;;;;;;6.22;3.13;;;15.40;92.80;;;;;;5055853;28;20433;-69
2023/08/08 02:56:09;;;;;;;7.18;2.97;;;15.40;92.80;;;;;;5068886;28;20028;-70
2023/08/08 02:58:35;;;;;;;5.28;2.88;;;15.40;92.90;;;;;;5059132;28;20085;-69
2023/08/08 03:01:00;;;;;;;6.13;3.08;;;15.30;93.00;;;;;;5064941;28;20068;-70
2023/08/08 03:03:26;;;;;;;5.30;2.75;;;15.30;93.10;;;;;;5066826;28;20513;-70
2023/08/08 03:05:52;;;;;;;4.95;3.10;;;15.30;93.10;;;;;;5060046;28;20096;-70
2023/08/08 03:08:17;;;;;;;4.55;2.78;;;15.30;93.10;;;;;;5070359;28;20024;-70
2023/08/08 03:10:43;;;;;;;5.30;3.22;;;15.30;93.10;;;;;;5067195;28;20441;-70
2023/08/08 03:13:08;;;;;;;5.93;3.03;;;15.30;93.10;;;;;;5069703;28;20067;-70
2023/08/08 03:15:35;;;;;;;4.88;2.85;;;15.30;93.10;;;;;;5067763;28;20662;-70
2023/08/08 03:18:00;;;;;;;7.53;3.15;;;15.30;93.10;;;;;;5055801;28;20029;-70
2023/08/08 03:20:26;;;;;;;5.00;2.95;;;15.30;93.10;;;;;;5068771;28;20013;-70
2023/08/08 03:22:52;;;;;;;5.07;2.90;;;15.30;93.10;;;;;;5069684;28;20036;-70
2023/08/08 03:25:17;;;;;;;5.35;2.90;;;15.40;93.10;;;;;;5061597;28;20024;-70
2023/08/08 03:27:43;;;;;;;6.05;3.22;;;15.30;93.10;;;;;;5058384;28;20044;-70
2023/08/08 03:30:09;;;;;;;6.55;3.13;;;15.40;93.20;;;;;;5062408;28;20060;-70
2023/08/08 03:32:34;;;;;;;5.57;3.33;;;15.40;93.20;;;;;;5069979;28;20036;-70
2023/08/08 03:35:00;;;;;;;6.00;3.40;;;15.40;93.20;;;;;;5061377;28;20031;-70
2023/08/08 03:37:26;;;;;;;8.80;4.25;;;15.40;93.20;;;;;;5059763;28;20074;-70
2023/08/08 03:39:51;;;;;;;5.78;3.30;;;15.40;93.40;;;;;;5064764;28;20656;-70
2023/08/08 03:42:17;;;;;;;7.68;4.35;;;15.40;93.40;;;;;;5051261;28;20033;-70
2023/08/08 03:44:42;;;;;;;8.60;4.30;;;15.40;93.60;;;;;;5052397;28;20060;-70
2023/08/08 03:47:08;;;;;;;6.90;3.75;;;15.40;93.60;;;;;;5070134;28;20070;-72
2023/08/08 03:49:33;;;;;;;8.68;4.03;;;15.40;93.60;;;;;;5061781;28;20399;-72
2023/08/08 03:51:59;;;;;;;7.40;4.30;;;15.40;93.60;;;;;;5050149;28;20568;-72
2023/08/08 03:54:24;;;;;;;8.18;4.10;;;15.40;93.60;;;;;;5053747;28;20032;-72
2023/08/08 03:56:50;;;;;;;9.05;4.63;;;15.40;93.60;;;;;;5057097;28;20655;-72
2023/08/08 03:59:15;;;;;;;9.82;4.65;;;15.40;93.70;;;;;;5067679;28;20098;-71
2023/08/08 04:01:41;;;;;;;7.82;4.30;;;15.50;93.80;;;;;;5048355;28;20029;-71
2023/08/08 04:04:07;;;;;;;9.82;5.03;;;15.50;93.80;;;;;;5053448;28;20029;-71
2023/08/08 04:06:32;;;;;;;8.25;4.30;;;15.50;94.10;;;;;;5066443;28;20024;-71
2023/08/08 04:08:58;;;;;;;6.93;4.30;;;15.50;93.80;;;;;;5053292;28;20056;-72
2023/08/08 04:11:23;;;;;;;7.97;4.25;;;15.40;93.80;;;;;;5057061;28;20024;-71
2023/08/08 04:13:49;;;;;;;7.22;4.38;;;15.40;93.90;;;;;;5069128;28;20505;-71
2023/08/08 04:16:14;;;;;;;7.50;4.10;;;15.40;94.00;;;;;;5066614;28;20035;-71
2023/08/08 04:18:40;;;;;;;8.68;5.03;;;15.40;93.90;;;;;;5058878;28;20476;-71
2023/08/08 04:21:06;;;;;;;9.68;4.82;;;15.40;94.00;;;;;;5055836;28;20031;-70
2023/08/08 04:23:31;;;;;;;8.05;4.40;;;15.50;94.10;;;;;;5071825;28;20024;-70
2023/08/08 04:25:57;;;;;;;8.25;4.30;;;15.40;94.00;;;;;;5071261;28;20025;-70
2023/08/08 04:28:22;;;;;;;9.23;5.28;;;15.40;94.00;;;;;;5072562;28;20086;-70
2023/08/08 04:30:48;;;;;;;10.02;5.43;;;15.40;94.10;;;;;;5069258;28;20040;-70
2023/08/08 04:33:14;;;;;;;8.43;4.63;;;15.40;94.20;;;;;;5056995;28;20435;-70
2023/08/08 04:35:39;;;;;;;6.97;4.07;;;15.40;94.20;;;;;;5057104;28;20017;-70
2023/08/08 04:38:05;;;;;;;9.57;4.80;;;15.40;94.30;;;;;;5066389;28;20036;-70
2023/08/08 04:40:30;;;;;;;6.57;3.92;;;15.40;94.30;;;;;;5068957;28;20059;-70
2023/08/08 04:42:56;;;;;;;6.15;3.88;;;15.40;94.30;;;;;;5056257;28;20071;-70
2023/08/08 04:45:21;;;;;;;6.03;3.75;;;15.40;94.30;;;;;;5065445;28;20028;-70
2023/08/08 04:47:47;;;;;;;12.88;5.35;;;15.40;94.40;;;;;;5063565;28;20395;-71
2023/08/08 04:50:13;;;;;;;8.65;4.57;;;15.40;94.40;;;;;;5071276;28;20479;-71
2023/08/08 04:52:39;;;;;;;8.27;4.18;;;15.40;94.40;;;;;;5054511;28;20580;-72
2023/08/08 04:55:05;;;;;;;8.57;4.20;;;15.40;94.40;;;;;;5052891;28;20441;-71
2023/08/08 04:57:30;;;;;;;9.23;4.20;;;15.40;94.40;;;;;;5060814;28;20037;-69
2023/08/08 04:59:56;;;;;;;6.57;3.78;;;15.50;94.40;;;;;;5060865;28;20021;-70
2023/08/08 05:02:22;;;;;;;8.38;4.60;;;15.50;94.30;;;;;;5067153;28;20161;-70
2023/08/08 05:04:48;;;;;;;7.68;4.30;;;15.50;94.30;;;;;;5058399;28;20103;-70
2023/08/08 05:07:13;;;;;;;5.85;4.20;;;15.60;94.30;;;;;;5058323;28;20082;-69
2023/08/08 05:09:40;;;;;;;9.32;4.70;;;15.60;94.20;;;;;;5052937;28;20021;-69
2023/08/08 05:12:06;;;;;;;7.95;4.57;;;15.60;94.20;;;;;;5062607;28;20406;-69
2023/08/08 05:14:31;;;;;;;7.75;4.15;;;15.60;94.20;;;;;;5070999;28;20032;-69
2023/08/08 05:16:57;;;;;;;7.60;5.00;;;15.60;94.20;;;;;;5058010;28;20017;-69
2023/08/08 05:19:24;;;;;;;10.50;5.60;;;15.60;94.20;;;;;;5052621;28;20029;-69
2023/08/08 05:21:49;;;;;;;10.45;4.93;;;15.60;94.10;;;;;;5059186;28;20021;-70
2023/08/08 05:24:15;;;;;;;9.68;4.90;;;15.60;94.20;;;;;;5070853;28;20031;-70
2023/08/08 05:26:40;;;;;;;7.55;4.32;;;15.60;94.20;;;;;;5064777;28;20086;-70
2023/08/08 05:29:06;;;;;;;12.02;5.20;;;15.70;94.20;;;;;;5070458;28;20029;-70
2023/08/08 05:31:32;;;;;;;7.65;4.65;;;15.70;94.10;;;;;;5063001;28;20029;-69
2023/08/08 05:34:18;;;;;;;8.88;5.03;;;15.70;94.50;;;;;;5063874;28;20021;-70
2023/08/08 05:36:43;;;;;;;8.40;4.88;;;15.80;94.20;;;;;;5066904;28;20045;-70
2023/08/08 05:39:09;;;;;;;9.23;5.13;;;15.80;94.20;;;;;;5072229;28;20039;-70
2023/08/08 05:41:35;;;;;;;9.07;4.90;;;15.80;94.30;;;;;;5062351;28;21555;-70
2023/08/08 05:44:01;;;;;;;11.38;5.45;;;15.80;94.30;;;;;;5054707;28;20029;-69
2023/08/08 05:46:27;;;;;;;7.90;4.70;;;15.90;94.40;;;;;;5066173;28;20025;-70
2023/08/08 05:48:52;;;;;;;9.25;4.65;;;16.10;94.20;;;;;;5063536;28;20503;-69
2023/08/08 05:51:18;;;;;;;9.65;5.07;;;16.10;93.90;;;;;;5056637;28;20028;-70
2023/08/08 05:53:43;;;;;;;10.57;5.30;;;16.20;93.90;;;;;;5055950;28;20078;-70
2023/08/08 05:56:09;;;;;;;6.68;4.25;;;16.20;93.90;;;;;;5054079;28;20064;-70
2023/08/08 05:58:36;;;;;;;9.23;4.55;;;16.30;93.70;;;;;;5056212;28;20129;-70
2023/08/08 06:01:05;;;;;;;9.68;4.10;;;16.30;93.60;;;;;;5061816;28;20029;-70
2023/08/08 06:03:32;;;;;;;10.23;5.03;;;16.30;93.60;;;;;;5064440;28;20021;-71
2023/08/08 06:05:57;;;;;;;12.98;4.93;;;16.20;93.70;;;;;;5055060;28;20013;-70
2023/08/08 06:08:23;;;;;;;9.48;4.90;;;16.20;93.80;;;;;;5056495;28;20079;-70
2023/08/08 06:10:48;;;;;;;9.88;5.25;;;16.40;94.00;;;;;;5058643;28;20574;-70
2023/08/08 06:13:14;;;;;;;7.03;3.88;;;16.60;93.50;;;;;;5057322;28;20060;-72
2023/08/08 06:15:40;;;;;;;9.23;5.10;;;16.60;93.30;;;;;;5051336;28;20434;-70
2023/08/08 06:18:06;;;;;;;8.82;4.68;;;16.60;93.30;;;;;;5060921;28;20116;-70
2023/08/08 06:20:31;;;;;;;7.82;3.92;;;17.10;93.50;;;;;;5051356;28;20118;-70
2023/08/08 06:22:57;;;;;;;6.63;4.20;;;17.90;91.90;;;;;;5052911;28;20099;-72
2023/08/08 06:25:23;;;;;;;6.22;4.00;;;17.80;91.20;;;;;;5061451;28;20033;-71
2023/08/08 06:27:49;;;;;;;10.68;4.45;;;17.70;91.10;;;;;;5070765;28;20037;-70
2023/08/08 06:30:15;;;;;;;8.75;4.13;;;17.50;91.20;;;;;;5076175;28;20548;-70
2023/08/08 06:32:40;;;;;;;7.70;3.60;;;17.30;91.50;;;;;;5069079;28;20028;-71
2023/08/08 06:35:06;;;;;;;6.72;3.45;;;17.20;91.80;;;;;;5068986;28;20028;-70
2023/08/08 06:37:32;;;;;;;5.90;3.45;;;17.10;91.90;;;;;;5063963;28;20040;-70
2023/08/08 06:39:58;;;;;;;8.00;4.15;;;17.10;92.00;;;;;;5063510;28;20108;-70
2023/08/08 06:42:24;;;;;;;4.57;2.83;;;18.10;91.70;;;;;;5053325;28;20127;-71
2023/08/08 06:44:50;;;;;;;7.88;3.97;;;19.30;89.20;;;;;;5055674;28;20467;-70
2023/08/08 06:47:16;;;;;;;4.80;2.92;;;19.90;84.50;;;;;;5062902;28;20411;-70
2023/08/08 06:49:41;;;;;;;5.93;2.83;;;20.00;83.30;;;;;;5049295;28;20031;-70
2023/08/08 06:52:07;;;;;;;9.18;2.80;;;19.40;83.60;;;;;;5050107;28;20380;-70
2023/08/08 06:54:33;;;;;;;4.70;2.60;;;19.20;84.70;;;;;;5054477;28;20029;-70
2023/08/08 06:56:58;;;;;;;7.88;3.00;;;19.00;85.30;;;;;;5049882;28;20017;-71
2023/08/08 06:59:25;;;;;;;4.35;2.60;;;18.80;85.40;;;;;;5050113;28;20032;-70
2023/08/08 07:01:50;;;;;;;4.63;2.65;;;18.70;86.40;;;;;;5057510;28;20021;-70
2023/08/08 07:04:17;;;;;;;5.10;2.47;;;20.00;83.60;;;;;;5063348;28;20036;-71
2023/08/08 07:06:44;;;;;;;3.47;2.30;;;20.20;81.80;;;;;;5061042;28;20538;-71
2023/08/08 07:09:10;;;;;;;5.18;2.33;;;20.00;81.40;;;;;;5060526;28;20063;-71
2023/08/08 07:11:36;;;;;;;5.97;2.05;;;20.50;79.70;;;;;;5049649;28;20029;-71
2023/08/08 07:14:02;;;;;;;4.70;1.83;;;20.50;79.00;;;;;;5066701;28;20032;-71
2023/08/08 07:16:28;;;;;;;6.20;1.70;;;20.80;77.50;;;;;;5060819;28;20028;-71
2023/08/08 07:18:53;;;;;;;4.75;1.88;;;21.60;75.50;;;;;;5067258;28;20120;-70
2023/08/08 07:21:20;;;;;;;4.93;1.83;;;22.20;73.90;;;;;;5061877;28;20020;-70
2023/08/08 07:23:45;;;;;;;2.25;1.27;;;23.00;70.40;;;;;;5063303;28;20030;-70
2023/08/08 07:26:11;;;;;;;4.72;1.35;;;23.30;67.70;;;;;;5062099;28;20024;-70
2023/08/08 07:28:37;;;;;;;4.50;1.48;;;23.60;66.40;;;;;;5061765;28;20037;-70
2023/08/08 07:31:02;;;;;;;4.95;1.40;;;23.70;65.80;;;;;;5057848;28;20020;-71
2023/08/08 07:33:28;;;;;;;2.65;1.40;;;23.90;64.80;;;;;;5062635;28;20100;-70
2023/08/08 07:35:54;;;;;;;2.40;1.30;;;23.90;63.80;;;;;;5060471;28;20025;-69
2023/08/08 07:38:19;;;;;;;2.92;1.30;;;23.80;64.40;;;;;;5059318;28;20028;-70
2023/08/08 07:40:45;;;;;;;2.85;1.20;;;23.50;64.60;;;;;;5063705;28;20033;-70
2023/08/08 07:43:11;;;;;;;2.55;1.02;;;22.70;66.20;;;;;;5061783;28;20013;-70
2023/08/08 07:45:37;;;;;;;3.15;1.13;;;22.40;67.70;;;;;;5060470;28;20542;-70
2023/08/08 07:48:04;;;;;;;3.30;1.20;;;22.10;67.10;;;;;;5060773;28;20107;-70
2023/08/08 07:50:29;;;;;;;3.35;1.10;;;21.80;67.60;;;;;;5059626;28;20108;-70
2023/08/08 07:52:55;;;;;;;4.20;1.25;;;21.60;68.30;;;;;;5059989;28;20139;-70
2023/08/08 07:55:20;;;;;;;4.13;1.40;;;21.50;67.20;;;;;;5062552;28;20044;-71
2023/08/08 07:57:46;;;;;;;2.28;1.00;;;21.20;66.90;;;;;;5072686;28;20020;-70
2023/08/08 08:00:12;;;;;;;2.78;1.23;;;21.10;68.30;;;;;;5068337;28;20028;-71
2023/08/08 08:02:43;;;;;;;2.45;1.10;;;21.20;68.50;;;;;;5066602;28;20422;-69
2023/08/08 08:05:09;;;;;;;2.00;1.20;;;20.90;68.40;;;;;;5078272;28;20059;-70
2023/08/08 08:07:35;;;;;;;2.95;1.00;;;20.90;69.00;;;;;;5072905;28;20032;-71
2023/08/08 08:10:03;;;;;;;1.30;1.00;;;20.70;69.10;;;;;;5066894;28;20020;-70
2023/08/08 08:12:30;;;;;;;1.58;0.90;;;20.70;68.90;;;;;;5072458;28;20025;-70
2023/08/08 08:14:56;;;;;;;4.25;1.13;;;20.70;68.90;;;;;;5069853;28;20040;-71
2023/08/08 08:17:21;;;;;;;1.48;0.90;;;20.60;67.80;;;;;;5072416;28;20032;-70
2023/08/08 08:19:47;;;;;;;1.77;1.00;;;20.40;68.30;;;;;;5053730;28;20110;-70
2023/08/08 08:22:13;;;;;;;2.17;0.90;;;20.30;67.70;;;;;;5062329;28;20029;-69
2023/08/08 08:24:38;;;;;;;1.85;0.95;;;20.30;68.50;;;;;;5066487;28;20098;-70
2023/08/08 08:27:04;;;;;;;1.75;0.80;;;20.30;67.80;;;;;;5073072;28;20017;-71
2023/08/08 08:29:31;;;;;;;1.98;1.00;;;20.40;67.60;;;;;;5070725;28;20032;-70
2023/08/08 08:31:57;;;;;;;2.58;1.10;;;20.40;67.50;;;;;;5075410;28;20054;-71
2023/08/08 08:34:22;;;;;;;1.73;0.85;;;20.30;66.60;;;;;;5081615;28;20390;-70
2023/08/08 08:36:48;;;;;;;1.40;0.80;;;20.40;66.50;;;;;;5073021;28;20063;-70
2023/08/08 08:39:13;;;;;;;1.83;0.77;;;20.30;65.80;;;;;;5055536;28;20040;-70
2023/08/08 08:41:39;;;;;;;3.08;0.90;;;20.40;65.80;;;;;;5064339;28;20024;-70
2023/08/08 08:44:07;;;;;;;1.60;0.80;;;20.40;65.10;;;;;;5062985;28;20017;-70
2023/08/08 08:46:36;;;;;;;1.70;0.70;;;20.30;65.20;;;;;;5064820;28;20027;-70
2023/08/08 08:49:05;;;;;;;2.58;0.90;;;20.30;65.60;;;;;;5072490;28;20182;-70
2023/08/08 08:51:30;;;;;;;1.55;0.80;;;20.30;65.80;;;;;;5061430;28;20024;-70
2023/08/08 08:53:58;;;;;;;2.72;0.82;;;20.30;66.00;;;;;;5054357;28;20043;-70
2023/08/08 08:56:24;;;;;;;2.42;0.90;;;20.50;66.10;;;;;;5058310;28;20021;-70
2023/08/08 08:58:50;;;;;;;3.55;0.85;;;20.40;65.50;;;;;;5067980;28;20399;-70
2023/08/08 09:01:17;;;;;;;2.00;0.80;;;20.40;64.90;;;;;;5068000;28;20027;-70
2023/08/08 09:03:45;;;;;;;2.85;1.00;;;20.30;64.50;;;;;;5068467;28;20025;-69
2023/08/08 09:06:12;;;;;;;1.23;0.80;;;20.30;64.70;;;;;;5065355;28;20021;-69
2023/08/08 09:08:37;;;;;;;1.33;0.80;;;20.30;64.30;;;;;;5064187;28;20028;-69
2023/08/08 09:11:03;;;;;;;1.45;0.70;;;20.30;65.00;;;;;;5066889;28;20464;-69
2023/08/08 09:13:41;;;;;;;2.90;1.20;;;20.40;64.30;;;;;;5065555;28;20025;-69
2023/08/08 09:16:12;;;;;;;1.50;0.55;;;20.30;63.20;;;;;;5061916;28;20025;-69
2023/08/08 09:18:38;;;;;;;1.40;0.70;;;20.40;63.70;;;;;;5065282;28;20061;-69
2023/08/08 09:21:04;;;;;;;0.68;0.60;;;20.40;62.80;;;;;;5066561;28;20063;-69
2023/08/08 09:23:30;;;;;;;2.50;0.50;;;20.40;62.80;;;;;;5065218;28;20020;-68
2023/08/08 09:25:56;;;;;;;1.08;0.60;;;20.60;63.10;;;;;;5068190;28;20440;-69
2023/08/08 09:28:22;;;;;;;1.10;0.70;;;20.70;62.90;;;;;;5070002;28;20024;-69
2023/08/08 09:30:48;;;;;;;2.72;0.80;;;20.60;61.80;;;;;;5067609;28;20655;-69
2023/08/08 09:33:14;;;;;;;0.98;0.60;;;20.60;62.10;;;;;;5073929;28;20691;-70
2023/08/08 09:35:39;;;;;;;1.67;0.60;;;20.60;62.20;;;;;;5069161;28;20052;-69
2023/08/08 09:38:05;;;;;;;1.50;0.70;;;20.50;61.80;;;;;;5070574;28;20029;-69
2023/08/08 09:40:31;;;;;;;0.95;0.55;;;20.40;61.60;;;;;;5070498;28;20086;-69
2023/08/08 09:43:00;;;;;;;2.72;0.75;;;20.40;61.90;;;;;;5072189;28;20067;-69
2023/08/08 09:45:26;;;;;;;1.42;0.68;;;20.40;62.70;;;;;;5066015;28;20054;-70
2023/08/08 09:47:52;;;;;;;1.00;0.52;;;20.40;60.80;;;;;;5073532;28;20033;-69
2023/08/08 09:50:19;;;;;;;2.00;0.60;;;20.40;60.90;;;;;;5070923;28;20024;-69
2023/08/08 09:52:46;;;;;;;1.70;0.60;;;20.30;60.50;;;;;;5068600;28;20020;-70
2023/08/08 09:55:13;;;;;;;1.08;0.70;;;20.40;60.70;;;;;;5069182;28;20060;-69
2023/08/08 09:57:39;;;;;;;0.80;0.70;;;20.40;60.60;;;;;;5067197;28;20132;-69
2023/08/08 10:00:10;;;;;;;1.08;0.77;;;20.30;60.60;;;;;;5072136;28;20021;-69
2023/08/08 10:02:36;;;;;;;1.33;0.70;;;20.30;60.80;;;;;;5073423;28;20796;-69
2023/08/08 10:05:04;;;;;;;1.20;0.65;;;20.40;60.60;;;;;;5070472;28;20099;-69
2023/08/08 10:07:30;;;;;;;1.58;0.77;;;20.40;60.30;;;;;;5066587;28;20028;-69
2023/08/08 10:09:57;;;;;;;0.73;0.60;;;20.40;59.50;;;;;;5069855;28;20028;-69
2023/08/08 10:12:25;;;;;;;0.88;0.73;;;20.20;59.00;;;;;;5068979;28;20043;-68
2023/08/08 10:14:51;;;;;;;1.50;0.70;;;20.30;58.60;;;;;;5067970;28;20539;-68
2023/08/08 10:17:18;;;;;;;1.45;0.90;;;20.50;59.10;;;;;;5071956;28;20093;-69
2023/08/08 10:19:56;;;;;;;2.72;0.77;;;20.60;58.60;;;;;;5068816;28;20036;-69
2023/08/08 10:22:24;;;;;;;0.90;0.60;;;20.60;59.00;;;;;;5070454;28;20032;-69
2023/08/08 10:24:54;;;;;;;1.65;0.80;;;20.60;58.80;;;;;;5068843;28;20032;-68
2023/08/08 10:27:33;;;;;;;1.05;0.70;;;20.50;57.90;;;;;;5069859;28;20111;-69
2023/08/08 10:30:09;;;;;;;1.42;0.70;;;20.40;58.50;;;;;;5067262;28;20032;-69
2023/08/08 10:32:46;;;;;;;1.75;0.80;;;20.40;58.50;;;;;;5072691;28;20028;-69
2023/08/08 10:35:12;;;;;;;1.98;0.68;;;20.40;58.40;;;;;;5068593;28;20032;-69
2023/08/08 10:37:38;;;;;;;0.85;0.60;;;20.40;58.60;;;;;;5068512;28;20073;-69
2023/08/08 10:40:06;;;;;;;0.70;0.70;;;20.50;59.00;;;;;;5064995;28;20017;-69
2023/08/08 10:42:41;;;;;;;1.05;0.70;;;20.50;58.90;;;;;;5059884;28;20031;-68
2023/08/08 10:45:12;;;;;;;1.15;0.70;;;20.40;58.30;;;;;;5063661;28;20042;-69
2023/08/08 10:47:37;;;;;;;1.55;0.80;;;20.40;57.90;;;;;;5061880;28;20024;-70
2023/08/08 10:50:11;;;;;;;2.33;0.77;;;20.50;58.40;;;;;;5065273;28;20028;-69
2023/08/08 10:52:54;;;;;;;1.10;0.80;;;20.70;58.50;;;;;;5066669;28;20048;-69
2023/08/08 10:55:34;;;;;;;1.00;0.65;;;20.90;58.20;;;;;;5065619;28;20627;-69
2023/08/08 10:58:00;;;;;;;1.15;0.60;;;21.00;58.40;;;;;;5064796;28;20039;-70
2023/08/08 11:00:29;;;;;;;0.95;0.60;;;21.10;58.70;;;;;;5066355;28;20112;-69
2023/08/08 11:02:55;;;;;;;1.23;0.90;;;21.00;58.60;;;;;;5063246;28;20483;-70
2023/08/08 11:05:22;;;;;;;1.25;0.90;;;21.00;57.70;;;;;;5066164;28;20021;-70
2023/08/08 11:07:48;;;;;;;1.38;1.00;;;20.90;57.60;;;;;;5063158;28;20054;-70
2023/08/08 11:10:14;;;;;;;0.80;0.80;;;21.00;57.70;;;;;;5069470;28;20020;-69
2023/08/08 11:12:40;;;;;;;0.70;0.52;;;20.90;57.60;;;;;;5073319;28;20043;-69
2023/08/08 11:15:06;;;;;;;1.05;0.70;;;21.00;58.10;;;;;;5072152;28;20093;-69
2023/08/08 11:17:32;;;;;;;1.10;0.60;;;21.00;57.90;;;;;;5065231;28;20098;-69
2023/08/08 11:19:58;;;;;;;1.35;0.70;;;21.00;58.50;;;;;;5066791;28;20104;-69
2023/08/08 11:22:24;;;;;;;2.38;0.80;;;21.20;58.90;;;;;;5069012;28;20571;-69
2023/08/08 11:24:50;;;;;;;1.45;0.73;;;21.20;58.70;;;;;;5069332;28;20478;-69
2023/08/08 11:27:16;;;;;;;1.90;0.80;;;21.30;58.80;;;;;;5065006;28;20442;-70
2023/08/08 11:29:50;;;;;;;3.13;1.10;;;21.40;58.80;;;;;;5069207;28;20020;-70
2023/08/08 11:32:16;;;;;;;1.00;0.80;;;21.30;58.30;;;;;;5068856;28;20047;-68
2023/08/08 11:34:41;;;;;;;1.15;0.70;;;21.10;58.10;;;;;;5064845;28;20087;-69
2023/08/08 11:37:08;;;;;;;1.17;0.70;;;21.00;57.80;;;;;;5068761;28;20108;-69
2023/08/08 11:39:34;;;;;;;1.05;0.70;;;21.10;58.10;;;;;;5060801;28;20481;-69
2023/08/08 11:42:00;;;;;;;0.80;0.70;;;21.10;58.10;;;;;;5069275;28;20024;-68
2023/08/08 11:44:26;;;;;;;1.23;0.90;;;21.10;57.90;;;;;;5069454;28;20072;-69
2023/08/08 11:46:52;;;;;;;1.38;0.80;;;21.00;57.70;;;;;;5070080;28;20032;-69
2023/08/08 11:49:18;;;;;;;3.80;0.90;;;21.10;57.70;;;;;;5064684;28;20187;-69
2023/08/08 11:51:45;;;;;;;1.15;0.80;;;21.20;57.60;;;;;;5069916;28;20556;-70
2023/08/08 11:54:11;;;;;;;2.35;1.05;;;21.30;57.70;;;;;;5067750;28;20082;-70
2023/08/08 11:56:38;;;;;;;1.02;0.93;;;21.40;57.30;;;;;;5067662;28;20020;-70
2023/08/08 11:59:05;;;;;;;2.33;0.98;;;21.50;57.20;;;;;;5065513;28;20040;-69
2023/08/08 12:01:32;;;;;;;1.42;0.90;;;21.70;57.40;;;;;;5068348;28;20025;-69
2023/08/08 12:03:58;;;;;;;2.03;0.95;;;21.70;56.90;;;;;;5070180;28;20078;-70
2023/08/08 12:06:29;;;;;;;2.15;0.82;;;21.90;57.20;;;;;;5066344;28;20021;-70
2023/08/08 12:08:55;;;;;;;1.23;0.85;;;21.90;56.80;;;;;;5067817;28;20486;-70
2023/08/08 12:11:21;;;;;;;1.95;1.00;;;21.90;56.80;;;;;;5066073;28;20033;-70
2023/08/08 12:13:46;;;;;;;1.42;0.82;;;21.80;56.90;;;;;;5068374;28;20027;-70
2023/08/08 12:16:13;;;;;;;2.22;0.82;;;21.80;57.20;;;;;;5071685;28;20395;-69
2023/08/08 12:18:40;;;;;;;2.20;0.88;;;21.80;56.90;;;;;;5068124;28;20036;-70
2023/08/08 12:21:07;;;;;;;1.58;0.80;;;21.80;57.10;;;;;;5066519;28;20028;-70
2023/08/08 12:23:34;;;;;;;1.95;0.82;;;21.80;56.80;;;;;;5066703;28;20029;-70
2023/08/08 12:26:02;;;;;;;1.40;0.82;;;21.70;56.40;;;;;;5069330;28;20503;-70
2023/08/08 12:28:29;;;;;;;1.70;1.00;;;21.80;56.60;;;;;;5067134;28;20063;-69
2023/08/08 12:30:54;;;;;;;0.90;0.80;;;22.00;56.30;;;;;;5062574;28;20052;-70
2023/08/08 12:33:20;;;;;;;3.20;0.90;;;22.20;55.10;;;;;;5062774;28;20060;-70
2023/08/08 12:35:47;;;;;;;1.30;0.82;;;22.10;55.10;;;;;;5065149;28;20542;-70
2023/08/08 12:38:14;;;;;;;1.88;0.85;;;22.20;55.30;;;;;;5066839;28;20104;-69
2023/08/08 12:40:39;;;;;;;1.52;0.70;;;22.40;54.70;;;;;;5063383;28;20028;-70
2023/08/08 12:43:05;;;;;;;2.45;0.88;;;22.50;54.60;;;;;;5066731;28;20086;-70